sensor_id;sensor_type;location;lat;lon;timestamp;temperature;humidity
9941;DHT22;5009;50.656;7.188;2023-05-07T04:00:17;13.70;99.90
9941;DHT22;5009;50.656;7.188;2023-05-07T04:02:43;13.60;99.90
9941;DHT22;5009;50.656;7.188;2023-05-07T04:05:08;13.70;99.90
9941;DHT22;5009;50.656;7.188;2023-05-07T04:07:34;13.70;99.90
9941;DHT22;5009;50.656;7.188;2023-05-07T04:10:00;13.70;99.90
9941;DHT22;5009;50.656;7.188;2023-05-07T04:12:25;13.70;99.90
9941;DHT22;5009;50.656;7.188;2023-05-07T04:14:51;13.70;99.90
9941;DHT22;5009;50.656;7.188;2023-05-07T04:17:17;13.70;99.90
9941;DHT22;5009;50.656;7.188;2023-05-07T04:19:42;13.80;99.90
9941;DHT22;5009;50.656;7.188;2023-05-07T04:22:11;13.80;99.90
9941;DHT22;5009;50.656;7.188;2023-05-07T04:24:37;13.80;99.90
9941;DHT22;5009;50.656;7.188;2023-05-07T04:27:02;13.70;99.90
9941;DHT22;5009;50.656;7.188;2023-05-07T04:29:28;13.80;99.90
9941;DHT22;5009;50.656;7.188;2023-05-07T04:31:53;13.90;99.90
9941;DHT22;5009;50.656;7.188;2023-05-07T04:34:21;13.80;99.90
9941;DHT22;5009;50.656;7.188;2023-05-07T04:36:47;13.90;99.90
9941;DHT22;5009;50.656;7.188;2023-05-07T04:39:13;13.80;99.90
9941;DHT22;5009;50.656;7.188;2023-05-07T04:41:38;13.80;99.90
9941;DHT22;5009;50.656;7.188;2023-05-07T04:44:04;13.80;99.90
9941;DHT22;5009;50.656;7.188;2023-05-07T04:46:31;13.80;99.90
9941;DHT22;5009;50.656;7.188;2023-05-07T04:48:56;13.80;99.90
9941;DHT22;5009;50.656;7.188;2023-05-07T04:51:22;13.80;99.90
9941;DHT22;5009;50.656;7.188;2023-05-07T04:53:48;13.80;99.90
9941;DHT22;5009;50.656;7.188;2023-05-07T04:56:14;13.90;99.90
9941;DHT22;5009;50.656;7.188;2023-05-07T04:58:39;13.90;99.90
9941;DHT22;5009;50.656;7.188;2023-05-07T05:01:05;13.90;99.90
9941;DHT22;5009;50.656;7.188;2023-05-07T05:03:31;13.90;99.90
9941;DHT22;5009;50.656;7.188;2023-05-07T05:05:57;14.00;99.90
9941;DHT22;5009;50.656;7.188;2023-05-07T05:08:24;14.10;99.90
9941;DHT22;5009;50.656;7.188;2023-05-07T05:10:50;14.20;99.90
9941;DHT22;5009;50.656;7.188;2023-05-07T05:13:16;14.30;99.90
9941;DHT22;5009;50.656;7.188;2023-05-07T05:15:41;14.40;99.90
9941;DHT22;5009;50.656;7.188;2023-05-07T05:18:07;14.60;99.90
9941;DHT22;5009;50.656;7.188;2023-05-07T05:20:32;14.70;99.90
9941;DHT22;5009;50.656;7.188;2023-05-07T05:22:58;14.90;99.90
9941;DHT22;5009;50.656;7.188;2023-05-07T05:25:24;15.00;99.90
9941;DHT22;5009;50.656;7.188;2023-05-07T05:27:49;15.20;99.90
9941;DHT22;5009;50.656;7.188;2023-05-07T05:30:15;15.30;99.90
9941;DHT22;5009;50.656;7.188;2023-05-07T05:32:40;15.40;99.90
9941;DHT22;5009;50.656;7.188;2023-05-07T05:35:06;15.60;99.90
9941;DHT22;5009;50.656;7.188;2023-05-07T05:37:32;15.70;99.90
9941;DHT22;5009;50.656;7.188;2023-05-07T05:39:58;15.60;99.90
9941;DHT22;5009;50.656;7.188;2023-05-07T05:42:23;15.50;99.90
9941;DHT22;5009;50.656;7.188;2023-05-07T05:44:49;15.60;99.90
9941;DHT22;5009;50.656;7.188;2023-05-07T05:47:14;15.60;99.90
9941;DHT22;5009;50.656;7.188;2023-05-07T05:49:40;15.60;99.90
9941;DHT22;5009;50.656;7.188;2023-05-07T05:52:05;15.50;99.90
9941;DHT22;5009;50.656;7.188;2023-05-07T05:54:31;15.70;99.90
9941;DHT22;5009;50.656;7.188;2023-05-07T05:56:57;15.90;99.90
9941;DHT22;5009;50.656;7.188;2023-05-07T05:59:23;15.80;99.90
9941;DHT22;5009;50.656;7.188;2023-05-07T06:01:48;15.90;99.90
9941;DHT22;5009;50.656;7.188;2023-05-07T06:04:14;15.90;99.90
9941;DHT22;5009;50.656;7.188;2023-05-07T06:06:40;16.50;99.90
9941;DHT22;5009;50.656;7.188;2023-05-07T06:09:05;17.80;99.90
9941;DHT22;5009;50.656;7.188;2023-05-07T06:11:31;19.20;99.90
9941;DHT22;5009;50.656;7.188;2023-05-07T06:13:57;20.90;99.90
9941;DHT22;5009;50.656;7.188;2023-05-07T06:16:22;21.90;99.90
9941;DHT22;5009;50.656;7.188;2023-05-07T06:18:49;22.00;99.90
9941;DHT22;5009;50.656;7.188;2023-05-07T06:21:15;21.50;99.90
9941;DHT22;5009;50.656;7.188;2023-05-07T06:23:41;21.20;99.90
9941;DHT22;5009;50.656;7.188;2023-05-07T06:26:06;20.60;99.90
9941;DHT22;5009;50.656;7.188;2023-05-07T06:28:32;20.10;99.90
9941;DHT22;5009;50.656;7.188;2023-05-07T06:31:14;19.80;99.90
9941;DHT22;5009;50.656;7.188;2023-05-07T06:33:40;19.50;99.90
9941;DHT22;5009;50.656;7.188;2023-05-07T06:36:06;19.20;99.90
9941;DHT22;5009;50.656;7.188;2023-05-07T06:38:31;18.90;99.90
9941;DHT22;5009;50.656;7.188;2023-05-07T06:40:57;18.60;99.90
9941;DHT22;5009;50.656;7.188;2023-05-07T06:43:23;18.50;99.90
9941;DHT22;5009;50.656;7.188;2023-05-07T06:45:49;18.40;99.90
9941;DHT22;5009;50.656;7.188;2023-05-07T06:48:14;18.40;99.90
9941;DHT22;5009;50.656;7.188;2023-05-07T06:50:41;18.30;99.90
9941;DHT22;5009;50.656;7.188;2023-05-07T06:53:06;18.00;99.90
9941;DHT22;5009;50.656;7.188;2023-05-07T06:55:32;17.90;99.90
9941;DHT22;5009;50.656;7.188;2023-05-07T06:57:58;17.70;99.90
9941;DHT22;5009;50.656;7.188;2023-05-07T07:00:26;17.60;99.90
9941;DHT22;5009;50.656;7.188;2023-05-07T07:02:52;17.60;99.90
9941;DHT22;5009;50.656;7.188;2023-05-07T07:05:18;17.50;99.90
9941;DHT22;5009;50.656;7.188;2023-05-07T07:07:44;17.50;99.90
9941;DHT22;5009;50.656;7.188;2023-05-07T07:10:09;17.30;99.90
9941;DHT22;5009;50.656;7.188;2023-05-07T07:12:35;17.20;99.90
9941;DHT22;5009;50.656;7.188;2023-05-07T07:15:01;17.10;99.90
9941;DHT22;5009;50.656;7.188;2023-05-07T07:17:27;17.10;99.90
9941;DHT22;5009;50.656;7.188;2023-05-07T07:19:53;17.10;99.90
9941;DHT22;5009;50.656;7.188;2023-05-07T07:22:19;17.20;99.90
9941;DHT22;5009;50.656;7.188;2023-05-07T07:24:44;17.20;99.90
9941;DHT22;5009;50.656;7.188;2023-05-07T07:27:10;17.20;99.90
9941;DHT22;5009;50.656;7.188;2023-05-07T07:29:35;17.40;99.90
9941;DHT22;5009;50.656;7.188;2023-05-07T07:32:01;17.30;99.90
9941;DHT22;5009;50.656;7.188;2023-05-07T07:34:27;17.40;99.90
9941;DHT22;5009;50.656;7.188;2023-05-07T07:36:52;17.40;99.90
9941;DHT22;5009;50.656;7.188;2023-05-07T07:39:18;17.60;99.90
9941;DHT22;5009;50.656;7.188;2023-05-07T07:41:43;17.80;99.90
9941;DHT22;5009;50.656;7.188;2023-05-07T07:44:09;17.90;99.90
9941;DHT22;5009;50.656;7.188;2023-05-07T07:46:38;18.10;99.90
9941;DHT22;5009;50.656;7.188;2023-05-07T07:49:03;18.00;99.90
9941;DHT22;5009;50.656;7.188;2023-05-07T07:51:29;18.30;99.90
9941;DHT22;5009;50.656;7.188;2023-05-07T07:53:55;18.40;99.90
9941;DHT22;5009;50.656;7.188;2023-05-07T07:56:23;18.60;99.90
9941;DHT22;5009;50.656;7.188;2023-05-07T07:58:48;19.50;99.90
9941;DHT22;5009;50.656;7.188;2023-05-07T08:01:14;20.10;99.90
9941;DHT22;5009;50.656;7.188;2023-05-07T08:03:39;20.50;99.90
9941;DHT22;5009;50.656;7.188;2023-05-07T08:06:05;20.90;99.90
9941;DHT22;5009;50.656;7.188;2023-05-07T08:08:30;20.90;99.90
9941;DHT22;5009;50.656;7.188;2023-05-07T08:10:56;21.00;99.90
9941;DHT22;5009;50.656;7.188;2023-05-07T08:13:21;20.90;99.90
9941;DHT22;5009;50.656;7.188;2023-05-07T08:15:47;21.20;99.90
9941;DHT22;5009;50.656;7.188;2023-05-07T08:18:13;21.20;99.90
9941;DHT22;5009;50.656;7.188;2023-05-07T08:20:38;21.70;99.90
9941;DHT22;5009;50.656;7.188;2023-05-07T08:23:05;21.50;98.50
9941;DHT22;5009;50.656;7.188;2023-05-07T08:25:36;21.40;99.10
9941;DHT22;5009;50.656;7.188;2023-05-07T08:28:02;21.60;99.60
9941;DHT22;5009;50.656;7.188;2023-05-07T08:30:28;21.20;98.90
9941;DHT22;5009;50.656;7.188;2023-05-07T08:32:54;21.10;99.10
9941;DHT22;5009;50.656;7.188;2023-05-07T08:35:20;20.80;99.60
9941;DHT22;5009;50.656;7.188;2023-05-07T08:37:45;21.00;99.90
9941;DHT22;5009;50.656;7.188;2023-05-07T08:40:11;21.00;99.70
9941;DHT22;5009;50.656;7.188;2023-05-07T08:42:36;21.00;99.90
9941;DHT22;5009;50.656;7.188;2023-05-07T08:45:04;21.30;99.90
9941;DHT22;5009;50.656;7.188;2023-05-07T08:47:38;21.40;99.90
9941;DHT22;5009;50.656;7.188;2023-05-07T08:50:06;21.20;99.10
9941;DHT22;5009;50.656;7.188;2023-05-07T08:52:32;21.30;99.40
9941;DHT22;5009;50.656;7.188;2023-05-07T08:54:58;21.30;99.10
9941;DHT22;5009;50.656;7.188;2023-05-07T08:57:24;21.40;99.00
9941;DHT22;5009;50.656;7.188;2023-05-07T08:59:50;21.50;98.80
9941;DHT22;5009;50.656;7.188;2023-05-07T09:02:15;21.40;98.50
9941;DHT22;5009;50.656;7.188;2023-05-07T09:04:42;21.50;98.60
9941;DHT22;5009;50.656;7.188;2023-05-07T09:07:07;21.60;98.30
9941;DHT22;5009;50.656;7.188;2023-05-07T09:09:33;21.30;97.30
9941;DHT22;5009;50.656;7.188;2023-05-07T09:11:59;21.60;98.50
9941;DHT22;5009;50.656;7.188;2023-05-07T09:14:25;21.50;97.70
9941;DHT22;5009;50.656;7.188;2023-05-07T09:16:52;21.60;98.70
9941;DHT22;5009;50.656;7.188;2023-05-07T09:19:22;22.20;98.60
9941;DHT22;5009;50.656;7.188;2023-05-07T09:21:48;22.40;97.50
9941;DHT22;5009;50.656;7.188;2023-05-07T09:24:15;22.80;97.20
9941;DHT22;5009;50.656;7.188;2023-05-07T09:26:41;22.80;96.40
9941;DHT22;5009;50.656;7.188;2023-05-07T09:29:08;23.00;96.30
9941;DHT22;5009;50.656;7.188;2023-05-07T09:31:38;23.30;95.90
9941;DHT22;5009;50.656;7.188;2023-05-07T09:34:05;23.60;96.00
9941;DHT22;5009;50.656;7.188;2023-05-07T09:36:31;23.70;95.20
9941;DHT22;5009;50.656;7.188;2023-05-07T09:38:59;23.40;94.50
9941;DHT22;5009;50.656;7.188;2023-05-07T09:41:26;23.80;95.20
9941;DHT22;5009;50.656;7.188;2023-05-07T09:43:54;24.00;94.70
9941;DHT22;5009;50.656;7.188;2023-05-07T09:46:26;24.00;94.60
9941;DHT22;5009;50.656;7.188;2023-05-07T09:48:56;23.70;93.90
9941;DHT22;5009;50.656;7.188;2023-05-07T09:51:28;24.00;94.30
9941;DHT22;5009;50.656;7.188;2023-05-07T09:53:54;24.00;93.40
9941;DHT22;5009;50.656;7.188;2023-05-07T09:56:21;24.20;93.80
9941;DHT22;5009;50.656;7.188;2023-05-07T09:58:49;24.30;93.50
9941;DHT22;5009;50.656;7.188;2023-05-07T10:01:17;24.00;93.30
9941;DHT22;5009;50.656;7.188;2023-05-07T10:03:44;24.40;93.50
9941;DHT22;5009;50.656;7.188;2023-05-07T10:06:12;24.30;93.10
9941;DHT22;5009;50.656;7.188;2023-05-07T10:08:39;24.50;93.30
9941;DHT22;5009;50.656;7.188;2023-05-07T10:11:05;24.40;92.40
9941;DHT22;5009;50.656;7.188;2023-05-07T10:13:34;24.10;92.10
9941;DHT22;5009;50.656;7.188;2023-05-07T10:16:03;24.30;92.10
9941;DHT22;5009;50.656;7.188;2023-05-07T10:18:31;23.50;91.60
9941;DHT22;5009;50.656;7.188;2023-05-07T10:21:11;23.50;92.10
9941;DHT22;5009;50.656;7.188;2023-05-07T10:23:40;23.50;92.10
9941;DHT22;5009;50.656;7.188;2023-05-07T10:26:07;23.60;92.40
9941;DHT22;5009;50.656;7.188;2023-05-07T10:28:39;23.50;92.10
9941;DHT22;5009;50.656;7.188;2023-05-07T10:33:48;23.90;93.20
9941;DHT22;5009;50.656;7.188;2023-05-07T10:36:14;24.00;92.10
9941;DHT22;5009;50.656;7.188;2023-05-07T10:38:40;23.90;91.40
9941;DHT22;5009;50.656;7.188;2023-05-07T10:41:06;23.90;90.70
9941;DHT22;5009;50.656;7.188;2023-05-07T10:43:42;23.90;90.10
9941;DHT22;5009;50.656;7.188;2023-05-07T10:46:19;24.00;90.00
9941;DHT22;5009;50.656;7.188;2023-05-07T10:49:06;24.20;90.90
9941;DHT22;5009;50.656;7.188;2023-05-07T10:51:32;24.20;88.10
9941;DHT22;5009;50.656;7.188;2023-05-07T10:56:43;24.10;87.30
9941;DHT22;5009;50.656;7.188;2023-05-07T11:02:04;24.50;86.30
9941;DHT22;5009;50.656;7.188;2023-05-07T11:04:31;24.60;84.50
9941;DHT22;5009;50.656;7.188;2023-05-07T11:15:15;24.80;83.60
9941;DHT22;5009;50.656;7.188;2023-05-07T11:17:57;24.70;83.50
9941;DHT22;5009;50.656;7.188;2023-05-07T11:20:49;24.80;82.80
9941;DHT22;5009;50.656;7.188;2023-05-07T11:26:10;25.00;84.20
9941;DHT22;5009;50.656;7.188;2023-05-07T11:28:41;25.20;84.30
9941;DHT22;5009;50.656;7.188;2023-05-07T11:31:07;25.30;83.40
9941;DHT22;5009;50.656;7.188;2023-05-07T11:33:33;25.40;82.80
9941;DHT22;5009;50.656;7.188;2023-05-07T11:36:01;25.40;81.40
9941;DHT22;5009;50.656;7.188;2023-05-07T11:38:28;25.40;81.70
9941;DHT22;5009;50.656;7.188;2023-05-07T11:40:58;25.40;81.90
9941;DHT22;5009;50.656;7.188;2023-05-07T11:43:29;25.20;81.40
9941;DHT22;5009;50.656;7.188;2023-05-07T11:45:55;25.30;81.70
9941;DHT22;5009;50.656;7.188;2023-05-07T11:48:30;25.40;81.80
9941;DHT22;5009;50.656;7.188;2023-05-07T11:53:33;25.00;78.00
9941;DHT22;5009;50.656;7.188;2023-05-07T11:56:00;25.10;77.80
9941;DHT22;5009;50.656;7.188;2023-05-07T11:58:26;25.10;77.80
9941;DHT22;5009;50.656;7.188;2023-05-07T12:00:53;25.10;77.80
9941;DHT22;5009;50.656;7.188;2023-05-07T12:03:19;25.10;76.80
9941;DHT22;5009;50.656;7.188;2023-05-07T12:05:48;25.10;75.90
9941;DHT22;5009;50.656;7.188;2023-05-07T12:08:15;25.00;76.10
9941;DHT22;5009;50.656;7.188;2023-05-07T12:10:42;25.10;75.90
9941;DHT22;5009;50.656;7.188;2023-05-07T12:13:22;25.00;75.40
9941;DHT22;5009;50.656;7.188;2023-05-07T12:15:56;25.10;72.70
9941;DHT22;5009;50.656;7.188;2023-05-07T12:18:23;25.00;73.00
9941;DHT22;5009;50.656;7.188;2023-05-07T12:20:49;25.00;73.20
9941;DHT22;5009;50.656;7.188;2023-05-07T12:23:16;25.20;73.60
9941;DHT22;5009;50.656;7.188;2023-05-07T12:25:43;25.40;73.90
9941;DHT22;5009;50.656;7.188;2023-05-07T12:28:16;25.50;71.50
9941;DHT22;5009;50.656;7.188;2023-05-07T12:30:43;25.50;69.10
9941;DHT22;5009;50.656;7.188;2023-05-07T12:33:09;25.60;69.90
9941;DHT22;5009;50.656;7.188;2023-05-07T12:35:42;25.60;70.80
9941;DHT22;5009;50.656;7.188;2023-05-07T12:38:09;25.20;71.00
9941;DHT22;5009;50.656;7.188;2023-05-07T12:40:46;25.00;72.10
9941;DHT22;5009;50.656;7.188;2023-05-07T12:43:19;25.00;72.50
9941;DHT22;5009;50.656;7.188;2023-05-07T12:45:50;24.80;73.50
9941;DHT22;5009;50.656;7.188;2023-05-07T12:48:15;24.90;74.10
9941;DHT22;5009;50.656;7.188;2023-05-07T12:50:41;24.70;73.30
9941;DHT22;5009;50.656;7.188;2023-05-07T12:53:07;24.60;74.70
9941;DHT22;5009;50.656;7.188;2023-05-07T12:56:00;24.40;74.00
9941;DHT22;5009;50.656;7.188;2023-05-07T12:58:30;24.60;75.50
9941;DHT22;5009;50.656;7.188;2023-05-07T13:00:58;24.60;74.10
9941;DHT22;5009;50.656;7.188;2023-05-07T13:03:36;24.70;75.40
9941;DHT22;5009;50.656;7.188;2023-05-07T13:06:10;24.70;75.00
9941;DHT22;5009;50.656;7.188;2023-05-07T13:08:39;24.60;74.40
9941;DHT22;5009;50.656;7.188;2023-05-07T13:11:08;24.60;75.00
9941;DHT22;5009;50.656;7.188;2023-05-07T13:13:35;24.60;75.90
9941;DHT22;5009;50.656;7.188;2023-05-07T13:16:01;24.60;75.20
9941;DHT22;5009;50.656;7.188;2023-05-07T13:18:29;24.60;76.60
9941;DHT22;5009;50.656;7.188;2023-05-07T13:20:55;24.50;77.10
9941;DHT22;5009;50.656;7.188;2023-05-07T13:23:21;24.40;77.80
9941;DHT22;5009;50.656;7.188;2023-05-07T13:25:47;24.40;77.30
9941;DHT22;5009;50.656;7.188;2023-05-07T13:28:13;24.40;78.30
9941;DHT22;5009;50.656;7.188;2023-05-07T13:30:39;24.40;78.00
9941;DHT22;5009;50.656;7.188;2023-05-07T13:33:06;24.20;77.60
9941;DHT22;5009;50.656;7.188;2023-05-07T13:35:32;24.20;77.50
9941;DHT22;5009;50.656;7.188;2023-05-07T13:37:58;24.20;77.90
9941;DHT22;5009;50.656;7.188;2023-05-07T13:40:23;24.00;78.10
9941;DHT22;5009;50.656;7.188;2023-05-07T13:42:49;23.90;78.60
9941;DHT22;5009;50.656;7.188;2023-05-07T13:45:15;23.70;79.40
9941;DHT22;5009;50.656;7.188;2023-05-07T13:47:42;23.70;80.30
9941;DHT22;5009;50.656;7.188;2023-05-07T13:50:09;23.60;80.20
9941;DHT22;5009;50.656;7.188;2023-05-07T13:52:34;23.60;81.10
9941;DHT22;5009;50.656;7.188;2023-05-07T13:55:00;23.40;82.00
9941;DHT22;5009;50.656;7.188;2023-05-07T13:57:26;23.40;82.50
9941;DHT22;5009;50.656;7.188;2023-05-07T13:59:51;23.30;82.80
9941;DHT22;5009;50.656;7.188;2023-05-07T14:02:17;23.30;83.20
9941;DHT22;5009;50.656;7.188;2023-05-07T14:04:42;23.30;84.20
9941;DHT22;5009;50.656;7.188;2023-05-07T14:07:08;23.20;86.60
9941;DHT22;5009;50.656;7.188;2023-05-07T14:09:33;23.20;87.80
9941;DHT22;5009;50.656;7.188;2023-05-07T14:11:59;23.10;88.80
9941;DHT22;5009;50.656;7.188;2023-05-07T14:14:25;23.00;89.30
9941;DHT22;5009;50.656;7.188;2023-05-07T14:16:51;22.90;91.60
9941;DHT22;5009;50.656;7.188;2023-05-07T14:19:16;22.60;92.50
9941;DHT22;5009;50.656;7.188;2023-05-07T14:21:42;22.50;95.30
9941;DHT22;5009;50.656;7.188;2023-05-07T14:24:07;22.40;99.90
9941;DHT22;5009;50.656;7.188;2023-05-07T14:26:34;22.30;99.90
9941;DHT22;5009;50.656;7.188;2023-05-07T14:28:59;22.10;99.90
9941;DHT22;5009;50.656;7.188;2023-05-07T14:31:25;21.80;99.90
9941;DHT22;5009;50.656;7.188;2023-05-07T14:33:51;21.50;99.90
9941;DHT22;5009;50.656;7.188;2023-05-07T14:36:17;21.20;99.90
9941;DHT22;5009;50.656;7.188;2023-05-07T14:38:45;21.10;99.90
9941;DHT22;5009;50.656;7.188;2023-05-07T14:41:11;21.10;99.90
9941;DHT22;5009;50.656;7.188;2023-05-07T14:43:37;21.00;99.90
9941;DHT22;5009;50.656;7.188;2023-05-07T14:46:02;20.90;99.90
9941;DHT22;5009;50.656;7.188;2023-05-07T14:48:28;20.90;99.90
9941;DHT22;5009;50.656;7.188;2023-05-07T14:50:54;20.90;99.90
9941;DHT22;5009;50.656;7.188;2023-05-07T14:53:19;20.70;99.90
9941;DHT22;5009;50.656;7.188;2023-05-07T14:55:45;20.70;99.90
9941;DHT22;5009;50.656;7.188;2023-05-07T14:58:11;20.60;99.90
9941;DHT22;5009;50.656;7.188;2023-05-07T15:00:36;20.50;99.90
9941;DHT22;5009;50.656;7.188;2023-05-07T15:03:07;20.30;99.90
9941;DHT22;5009;50.656;7.188;2023-05-07T15:05:33;20.20;99.90
9941;DHT22;5009;50.656;7.188;2023-05-07T15:07:59;20.20;99.90
9941;DHT22;5009;50.656;7.188;2023-05-07T15:10:25;20.10;99.90
9941;DHT22;5009;50.656;7.188;2023-05-07T15:12:50;20.10;99.90
9941;DHT22;5009;50.656;7.188;2023-05-07T15:15:16;19.90;99.90
9941;DHT22;5009;50.656;7.188;2023-05-07T15:17:41;19.50;99.90
9941;DHT22;5009;50.656;7.188;2023-05-07T15:20:07;19.20;99.90
9941;DHT22;5009;50.656;7.188;2023-05-07T15:22:33;19.30;99.90
9941;DHT22;5009;50.656;7.188;2023-05-07T15:24:59;19.30;99.90
9941;DHT22;5009;50.656;7.188;2023-05-07T15:27:25;19.10;99.90
9941;DHT22;5009;50.656;7.188;2023-05-07T15:29:51;19.10;99.90
9941;DHT22;5009;50.656;7.188;2023-05-07T15:32:17;19.10;99.90
9941;DHT22;5009;50.656;7.188;2023-05-07T15:34:42;19.10;99.90
9941;DHT22;5009;50.656;7.188;2023-05-07T15:37:08;19.10;99.90
9941;DHT22;5009;50.656;7.188;2023-05-07T15:39:33;19.20;99.90
9941;DHT22;5009;50.656;7.188;2023-05-07T15:41:59;18.90;99.90
9941;DHT22;5009;50.656;7.188;2023-05-07T15:44:24;18.60;99.90
9941;DHT22;5009;50.656;7.188;2023-05-07T15:46:55;18.50;99.90
9941;DHT22;5009;50.656;7.188;2023-05-07T15:49:21;18.60;99.90
9941;DHT22;5009;50.656;7.188;2023-05-07T15:51:47;18.70;99.90
9941;DHT22;5009;50.656;7.188;2023-05-07T15:54:13;18.70;99.90
9941;DHT22;5009;50.656;7.188;2023-05-07T15:56:38;18.70;99.90
9941;DHT22;5009;50.656;7.188;2023-05-07T15:59:04;18.60;99.90
9941;DHT22;5009;50.656;7.188;2023-05-07T16:01:30;18.60;99.90
9941;DHT22;5009;50.656;7.188;2023-05-07T16:03:57;18.60;99.90
9941;DHT22;5009;50.656;7.188;2023-05-07T16:06:22;18.60;99.90
9941;DHT22;5009;50.656;7.188;2023-05-07T16:08:48;18.60;99.90
9941;DHT22;5009;50.656;7.188;2023-05-07T16:11:14;18.50;99.90
9941;DHT22;5009;50.656;7.188;2023-05-07T16:13:39;18.40;99.90
9941;DHT22;5009;50.656;7.188;2023-05-07T16:16:05;18.50;99.90
9941;DHT22;5009;50.656;7.188;2023-05-07T16:18:31;18.50;99.90
9941;DHT22;5009;50.656;7.188;2023-05-07T16:20:57;18.50;99.90
9941;DHT22;5009;50.656;7.188;2023-05-07T16:23:24;18.50;99.90
9941;DHT22;5009;50.656;7.188;2023-05-07T16:25:51;18.40;99.90
9941;DHT22;5009;50.656;7.188;2023-05-07T16:28:16;18.50;99.90
9941;DHT22;5009;50.656;7.188;2023-05-07T16:30:42;18.50;99.90
9941;DHT22;5009;50.656;7.188;2023-05-07T16:33:07;18.50;99.90
9941;DHT22;5009;50.656;7.188;2023-05-07T16:35:33;18.40;99.90
9941;DHT22;5009;50.656;7.188;2023-05-07T16:37:59;18.50;99.90
9941;DHT22;5009;50.656;7.188;2023-05-07T16:40:25;18.40;99.90
9941;DHT22;5009;50.656;7.188;2023-05-07T16:42:51;18.40;99.90
9941;DHT22;5009;50.656;7.188;2023-05-07T16:45:17;18.40;99.90
9941;DHT22;5009;50.656;7.188;2023-05-07T16:47:43;18.40;99.90
9941;DHT22;5009;50.656;7.188;2023-05-07T16:50:10;18.30;99.90
9941;DHT22;5009;50.656;7.188;2023-05-07T16:52:35;18.40;99.90
9941;DHT22;5009;50.656;7.188;2023-05-07T16:55:01;18.30;99.90
9941;DHT22;5009;50.656;7.188;2023-05-07T16:57:28;18.30;99.90
9941;DHT22;5009;50.656;7.188;2023-05-07T16:59:57;18.30;99.90
9941;DHT22;5009;50.656;7.188;2023-05-07T17:02:24;18.30;99.90
9941;DHT22;5009;50.656;7.188;2023-05-07T17:04:49;18.30;99.90
9941;DHT22;5009;50.656;7.188;2023-05-07T17:07:15;18.30;99.90
9941;DHT22;5009;50.656;7.188;2023-05-07T17:09:41;18.30;99.90
9941;DHT22;5009;50.656;7.188;2023-05-07T17:12:07;18.30;99.90
9941;DHT22;5009;50.656;7.188;2023-05-07T17:14:33;18.30;99.90
9941;DHT22;5009;50.656;7.188;2023-05-07T17:16:58;18.30;99.90
9941;DHT22;5009;50.656;7.188;2023-05-07T17:19:24;18.20;99.90
9941;DHT22;5009;50.656;7.188;2023-05-07T17:21:49;18.20;99.90
9941;DHT22;5009;50.656;7.188;2023-05-07T17:24:16;18.20;99.90
9941;DHT22;5009;50.656;7.188;2023-05-07T17:26:41;18.10;99.90
9941;DHT22;5009;50.656;7.188;2023-05-07T17:29:08;18.10;99.90
9941;DHT22;5009;50.656;7.188;2023-05-07T17:31:34;18.10;99.90
9941;DHT22;5009;50.656;7.188;2023-05-07T17:33:59;18.10;99.90
9941;DHT22;5009;50.656;7.188;2023-05-07T17:36:25;18.10;99.90
9941;DHT22;5009;50.656;7.188;2023-05-07T17:38:51;18.00;99.90
9941;DHT22;5009;50.656;7.188;2023-05-07T17:41:17;17.90;99.90
9941;DHT22;5009;50.656;7.188;2023-05-07T17:43:42;17.90;99.90
9941;DHT22;5009;50.656;7.188;2023-05-07T17:46:09;17.80;99.90
9941;DHT22;5009;50.656;7.188;2023-05-07T17:48:34;17.80;99.90
9941;DHT22;5009;50.656;7.188;2023-05-07T17:51:01;17.70;99.90
9941;DHT22;5009;50.656;7.188;2023-05-07T17:53:27;17.70;99.90
9941;DHT22;5009;50.656;7.188;2023-05-07T17:55:53;17.70;99.90
9941;DHT22;5009;50.656;7.188;2023-05-07T17:58:19;17.60;99.90
9941;DHT22;5009;50.656;7.188;2023-05-07T18:00:47;17.60;99.90
9941;DHT22;5009;50.656;7.188;2023-05-07T18:03:13;17.50;99.90
9941;DHT22;5009;50.656;7.188;2023-05-07T18:05:39;17.50;99.90
9941;DHT22;5009;50.656;7.188;2023-05-07T18:08:08;17.50;99.90
9941;DHT22;5009;50.656;7.188;2023-05-07T18:10:34;17.40;99.90
9941;DHT22;5009;50.656;7.188;2023-05-07T18:12:59;17.30;99.90
9941;DHT22;5009;50.656;7.188;2023-05-07T18:15:25;17.30;99.90
9941;DHT22;5009;50.656;7.188;2023-05-07T18:17:50;17.20;99.90
9941;DHT22;5009;50.656;7.188;2023-05-07T18:20:16;17.20;99.90
9941;DHT22;5009;50.656;7.188;2023-05-07T18:22:42;17.10;99.90
9941;DHT22;5009;50.656;7.188;2023-05-07T18:25:08;17.10;99.90
9941;DHT22;5009;50.656;7.188;2023-05-07T18:27:33;17.10;99.90
9941;DHT22;5009;50.656;7.188;2023-05-07T18:29:59;17.10;99.90
9941;DHT22;5009;50.656;7.188;2023-05-07T18:32:25;17.10;99.90
9941;DHT22;5009;50.656;7.188;2023-05-07T18:34:52;17.20;99.90
9941;DHT22;5009;50.656;7.188;2023-05-07T18:37:19;17.30;99.90
9941;DHT22;5009;50.656;7.188;2023-05-07T18:39:46;17.20;99.90
9941;DHT22;5009;50.656;7.188;2023-05-07T18:42:12;17.30;99.90
9941;DHT22;5009;50.656;7.188;2023-05-07T18:44:38;17.30;99.90
9941;DHT22;5009;50.656;7.188;2023-05-07T18:47:04;17.40;99.90
9941;DHT22;5009;50.656;7.188;2023-05-07T18:49:32;17.40;99.90
9941;DHT22;5009;50.656;7.188;2023-05-07T18:51:58;17.40;99.90
9941;DHT22;5009;50.656;7.188;2023-05-07T18:54:23;17.40;99.90
9941;DHT22;5009;50.656;7.188;2023-05-07T18:56:49;17.40;99.90
9941;DHT22;5009;50.656;7.188;2023-05-07T18:59:15;17.40;99.90
9941;DHT22;5009;50.656;7.188;2023-05-07T19:01:41;17.40;99.90
9941;DHT22;5009;50.656;7.188;2023-05-07T19:04:07;17.30;99.90
9941;DHT22;5009;50.656;7.188;2023-05-07T19:06:33;17.20;99.90
9941;DHT22;5009;50.656;7.188;2023-05-07T19:08:58;17.10;99.90
9941;DHT22;5009;50.656;7.188;2023-05-07T19:11:24;17.10;99.90
9941;DHT22;5009;50.656;7.188;2023-05-07T19:13:50;17.10;99.90
9941;DHT22;5009;50.656;7.188;2023-05-07T19:16:16;17.10;99.90
9941;DHT22;5009;50.656;7.188;2023-05-07T19:18:42;17.10;99.90
9941;DHT22;5009;50.656;7.188;2023-05-07T19:21:08;17.00;99.90
9941;DHT22;5009;50.656;7.188;2023-05-07T19:23:37;17.00;99.90
9941;DHT22;5009;50.656;7.188;2023-05-07T19:26:10;16.90;99.90
9941;DHT22;5009;50.656;7.188;2023-05-07T19:28:39;16.80;99.90
9941;DHT22;5009;50.656;7.188;2023-05-07T19:31:05;16.80;99.90
9941;DHT22;5009;50.656;7.188;2023-05-07T19:33:32;16.70;99.90
9941;DHT22;5009;50.656;7.188;2023-05-07T19:36:00;16.70;99.90
9941;DHT22;5009;50.656;7.188;2023-05-07T19:38:26;16.70;99.90
9941;DHT22;5009;50.656;7.188;2023-05-07T19:40:53;16.80;99.90
9941;DHT22;5009;50.656;7.188;2023-05-07T19:43:19;16.90;99.90
9941;DHT22;5009;50.656;7.188;2023-05-07T19:45:46;16.90;99.90
9941;DHT22;5009;50.656;7.188;2023-05-07T19:48:13;17.00;99.90
9941;DHT22;5009;50.656;7.188;2023-05-07T19:50:39;17.00;99.90
9941;DHT22;5009;50.656;7.188;2023-05-07T19:53:05;17.00;99.90
9941;DHT22;5009;50.656;7.188;2023-05-07T19:55:31;17.00;99.90
9941;DHT22;5009;50.656;7.188;2023-05-07T19:57:56;17.00;99.90
9941;DHT22;5009;50.656;7.188;2023-05-07T20:00:22;17.00;99.90
9941;DHT22;5009;50.656;7.188;2023-05-07T20:02:51;17.00;99.90
9941;DHT22;5009;50.656;7.188;2023-05-07T20:05:17;17.00;99.90
9941;DHT22;5009;50.656;7.188;2023-05-07T20:07:42;17.00;99.90
9941;DHT22;5009;50.656;7.188;2023-05-07T20:10:09;17.00;99.90
9941;DHT22;5009;50.656;7.188;2023-05-07T20:12:35;17.00;99.90
9941;DHT22;5009;50.656;7.188;2023-05-07T20:15:00;17.00;99.90
9941;DHT22;5009;50.656;7.188;2023-05-07T20:17:27;17.00;99.90
9941;DHT22;5009;50.656;7.188;2023-05-07T20:19:53;16.90;99.90